Time;durP1;ratioP1;P1;durP2;ratioP2;P2;SDS_P1;SDS_P2;PMS_P1;PMS_P2;Temp;Humidity;BMP_temperature;BMP_pressure;BME280_temperature;BME280_humidity;BME280_pressure;Samples;Min_cycle;Max_cycle;Signal;HPM_P1;HPM_P2
2022/03/12 00:00:46;;;;;;;6.40;3.67;;;;;;;-6.49;54.29;102044.60;1670760;84;21012;-72
2022/03/12 00:03:13;;;;;;;6.87;4.90;;;;;;;-6.45;53.94;102041.72;1671276;84;21011;-73
2022/03/12 00:05:52;;;;;;;6.28;3.75;;;;;;;-6.49;53.37;102040.77;1672195;84;21003;-73
2022/03/12 00:08:09;;;;;;;7.12;4.10;;;;;;;-6.60;53.34;102035.73;1671224;84;21231;-72
2022/03/12 00:10:42;;;;;;;6.25;4.12;;;;;;;-6.70;53.46;102037.50;1672274;85;20961;-72
2022/03/12 00:13:05;;;;;;;5.78;4.30;;;;;;;-6.75;53.46;102037.34;1669340;84;20953;-72
2022/03/12 00:15:33;;;;;;;8.53;5.15;;;;;;;-6.76;53.67;102033.08;1671068;84;21140;-72
2022/03/12 00:18:02;;;;;;;9.65;3.95;;;;;;;-6.74;53.54;102023.77;1671366;84;21584;-72
2022/03/12 00:20:34;;;;;;;8.88;3.62;;;;;;;-6.70;53.52;102026.02;1671499;85;21107;-73
2022/03/12 00:22:58;;;;;;;6.25;4.10;;;;;;;-6.68;53.08;102026.95;1671600;84;21462;-72
2022/03/12 00:25:26;;;;;;;8.00;3.90;;;;;;;-6.80;53.06;102015.05;1669539;84;21395;-71
2022/03/12 00:27:53;;;;;;;4.90;3.50;;;;;;;-6.81;53.25;102028.20;1666330;85;20999;-73
2022/03/12 00:30:24;;;;;;;10.35;4.45;;;;;;;-6.82;53.37;102028.18;1670514;84;21406;-73
2022/03/12 00:32:52;;;;;;;4.22;3.22;;;;;;;-6.80;53.36;102028.69;1668928;84;21549;-74
2022/03/12 00:35:20;;;;;;;5.80;3.77;;;;;;;-6.79;53.24;102028.27;1668911;84;21562;-72
2022/03/12 00:37:47;;;;;;;6.50;3.75;;;;;;;-6.80;52.91;102031.62;1670920;84;21000;-73
2022/03/12 00:40:16;;;;;;;8.35;4.05;;;;;;;-6.80;53.04;102025.24;1670543;84;21004;-72
2022/03/12 00:42:43;;;;;;;6.47;3.58;;;;;;;-6.81;52.92;102022.25;1669930;84;20933;-73
2022/03/12 00:45:10;;;;;;;5.97;4.47;;;;;;;-6.84;52.99;102029.39;1670383;84;22127;-73
2022/03/12 00:47:37;;;;;;;5.53;3.22;;;;;;;-6.86;52.83;102023.78;1670231;84;20995;-72
2022/03/12 00:50:06;;;;;;;6.97;4.00;;;;;;;-6.92;52.96;102019.33;1671131;85;20865;-73
2022/03/12 00:52:33;;;;;;;6.15;3.85;;;;;;;-6.93;52.77;102015.06;1671374;84;21011;-73
2022/03/12 00:55:01;;;;;;;5.58;3.17;;;;;;;-6.94;52.60;102017.13;1671239;84;21023;-73
2022/03/12 00:57:28;;;;;;;8.15;3.80;;;;;;;-6.96;52.68;102019.66;1671444;84;21125;-71
2022/03/12 00:59:56;;;;;;;6.03;3.47;;;;;;;-6.99;52.54;102025.04;1665636;84;21480;-73
2022/03/12 01:02:23;;;;;;;7.65;3.10;;;;;;;-7.03;52.73;102022.78;1669962;85;21055;-72
2022/03/12 01:04:50;;;;;;;8.00;3.47;;;;;;;-7.03;52.97;102027.02;1672043;84;20984;-73
2022/03/12 01:07:17;;;;;;;5.58;3.37;;;;;;;-7.03;52.95;102024.47;1669715;84;21458;-71
2022/03/12 01:09:46;;;;;;;8.90;4.22;;;;;;;-7.02;53.00;102027.08;1670845;84;21237;-72
2022/03/12 01:12:13;;;;;;;7.10;2.98;;;;;;;-6.99;52.86;102025.90;1670457;85;20921;-71
2022/03/12 01:14:41;;;;;;;6.10;3.70;;;;;;;-6.96;52.48;102027.30;1670400;85;21043;-73
2022/03/12 01:17:08;;;;;;;6.83;4.65;;;;;;;-6.97;52.43;102023.00;1672337;84;20952;-72
2022/03/12 01:19:38;;;;;;;7.55;3.67;;;;;;;-6.97;52.35;102021.72;1670362;85;21573;-72
2022/03/12 01:22:05;;;;;;;6.87;3.65;;;;;;;-6.93;52.51;102023.57;1670098;85;21230;-71
2022/03/12 01:24:33;;;;;;;6.53;2.90;;;;;;;-6.92;52.40;102025.70;1669543;85;20933;-71
2022/03/12 01:27:00;;;;;;;7.30;3.72;;;;;;;-6.93;52.49;102024.84;1669701;84;21019;-72
2022/03/12 01:29:27;;;;;;;3.67;2.83;;;;;;;-6.93;52.24;102018.47;1671361;84;20972;-72
2022/03/12 01:31:55;;;;;;;9.03;3.45;;;;;;;-6.96;52.20;102020.93;1672200;85;20869;-73
2022/03/12 01:34:22;;;;;;;12.13;3.67;;;;;;;-6.96;52.10;102024.75;1670620;84;21582;-72
2022/03/12 01:36:51;;;;;;;5.50;3.52;;;;;;;-6.99;51.73;102024.62;1669084;84;20999;-72
2022/03/12 01:39:17;;;;;;;7.78;3.22;;;;;;;-7.07;51.72;102017.52;1669895;84;21139;-71
2022/03/12 01:41:44;;;;;;;6.35;2.95;;;;;;;-7.14;51.61;102021.54;1671557;85;21046;-72
2022/03/12 01:44:14;;;;;;;6.58;3.72;;;;;;;-7.25;51.78;102021.16;1672704;84;21466;-71
2022/03/12 01:46:45;;;;;;;6.58;3.67;;;;;;;-7.37;51.93;102022.87;1668735;85;21548;-72
2022/03/12 01:49:16;;;;;;;6.42;4.00;;;;;;;-7.37;52.27;102026.69;1669650;85;20881;-72
2022/03/12 01:51:44;;;;;;;3.52;2.33;;;;;;;-7.35;52.19;102026.76;1638648;86;20978;-70
2022/03/12 01:54:11;;;;;;;4.37;2.65;;;;;;;-7.38;52.15;102022.42;1614648;88;21204;-71
2022/03/12 01:56:39;;;;;;;4.15;2.92;;;;;;;-7.42;52.03;102033.73;1670420;85;21030;-71
2022/03/12 01:59:06;;;;;;;5.03;3.27;;;;;;;-7.46;52.39;102030.19;1670158;85;21561;-73
2022/03/12 02:01:33;;;;;;;4.83;3.20;;;;;;;-7.38;52.49;102033.89;1669362;85;21522;-72
2022/03/12 02:04:00;;;;;;;3.75;2.33;;;;;;;-7.38;52.13;102033.89;1672504;84;21443;-72
2022/03/12 02:06:29;;;;;;;4.58;3.00;;;;;;;-7.42;51.94;102029.91;1670458;84;20936;-71
2022/03/12 02:08:58;;;;;;;4.87;3.55;;;;;;;-7.48;52.09;102037.31;1671566;84;20917;-72
2022/03/12 02:11:28;;;;;;;5.87;3.22;;;;;;;-7.52;51.86;102032.50;1671780;84;21801;-72
2022/03/12 02:14:04;;;;;;;9.70;3.58;;;;;;;-7.56;51.63;102037.02;1665105;84;21095;-73
2022/03/12 02:16:34;;;;;;;5.78;2.80;;;;;;;-7.63;51.78;102038.88;1671334;85;20917;-72
2022/03/12 02:19:01;;;;;;;5.03;2.62;;;;;;;-7.73;51.72;102041.09;1669371;84;21508;-72
2022/03/12 02:21:38;;;;;;;6.78;3.77;;;;;;;-7.79;52.04;102041.27;1669956;84;20955;-72
2022/03/12 02:24:10;;;;;;;3.20;2.42;;;;;;;-7.82;52.20;102042.44;1671311;84;21201;-72
2022/03/12 02:26:38;;;;;;;5.85;2.77;;;;;;;-7.78;51.98;102045.15;1671094;84;20952;-71
2022/03/12 02:29:09;;;;;;;5.83;3.45;;;;;;;-7.86;51.93;102048.21;1672087;84;21491;-72
2022/03/12 02:31:35;;;;;;;6.83;3.27;;;;;;;-7.96;52.60;102044.42;1669715;84;20885;-71
2022/03/12 02:34:04;;;;;;;3.40;2.60;;;;;;;-7.88;52.52;102043.46;1671877;84;21169;-72
2022/03/12 02:36:31;;;;;;;7.08;3.65;;;;;;;-7.83;52.45;102041.53;1670076;85;21630;-72
2022/03/12 02:39:01;;;;;;;8.75;4.65;;;;;;;-7.81;52.62;102044.16;1670174;85;21502;-72
2022/03/12 02:41:27;;;;;;;4.55;3.37;;;;;;;-7.75;53.15;102048.22;1671903;84;20956;-71
2022/03/12 02:43:54;;;;;;;4.45;3.15;;;;;;;-7.66;53.97;102038.37;1644115;85;20985;-71
2022/03/12 02:46:27;;;;;;;7.30;3.25;;;;;;;-7.56;54.65;102045.93;1671666;84;20886;-72
2022/03/12 02:48:51;;;;;;;4.33;3.10;;;;;;;-7.48;54.83;102043.27;1670310;85;21257;-71
2022/03/12 02:51:22;;;;;;;4.33;2.85;;;;;;;-7.46;55.08;102039.52;1672309;84;20952;-72
2022/03/12 02:53:57;;;;;;;5.60;3.58;;;;;;;-7.48;55.30;102033.49;1671517;84;21004;-71
2022/03/12 02:56:22;;;;;;;7.20;3.72;;;;;;;-7.56;55.54;102030.27;1670851;84;20941;-71
2022/03/12 02:58:49;;;;;;;5.80;2.92;;;;;;;-7.60;55.96;102029.69;1673032;84;20920;-72
2022/03/12 03:01:16;;;;;;;6.75;3.42;;;;;;;-7.56;56.12;102026.83;1670571;85;21165;-71
2022/03/12 03:03:45;;;;;;;6.25;3.58;;;;;;;-7.51;56.20;102033.84;1670001;84;21004;-72
2022/03/12 03:06:14;;;;;;;3.55;3.05;;;;;;;-7.50;56.26;102030.47;1671344;84;20920;-73
2022/03/12 03:08:43;;;;;;;6.25;2.95;;;;;;;-7.48;56.22;102033.08;1671678;85;21564;-73
2022/03/12 03:11:13;;;;;;;5.53;3.45;;;;;;;-7.40;56.34;102031.69;1672858;84;21055;-72
2022/03/12 03:13:46;;;;;;;10.23;6.25;;;;;;;-7.32;56.15;102033.23;1670131;85;21141;-73
2022/03/12 03:16:25;;;;;;;7.37;3.62;;;;;;;-7.26;56.04;102041.52;1670716;84;20960;-71
2022/03/12 03:18:50;;;;;;;6.70;3.50;;;;;;;-7.20;56.10;102033.68;1666532;84;20968;-73
2022/03/12 03:21:13;;;;;;;5.67;3.60;;;;;;;-7.13;55.80;102035.62;1669932;84;21088;-72
2022/03/12 03:23:40;;;;;;;5.05;3.40;;;;;;;-7.10;55.72;102037.41;1672834;84;21055;-73
2022/03/12 03:26:07;;;;;;;5.85;4.08;;;;;;;-7.12;55.68;102036.07;1665189;85;21510;-73
2022/03/12 03:28:36;;;;;;;5.58;4.20;;;;;;;-7.15;55.50;102038.52;1671429;84;21039;-72
2022/03/12 03:31:06;;;;;;;7.25;3.52;;;;;;;-7.19;55.65;102038.36;1671203;84;20961;-73
2022/03/12 03:33:33;;;;;;;5.42;3.37;;;;;;;-7.24;55.82;102043.30;1670977;85;21493;-73
2022/03/12 03:36:00;;;;;;;5.30;3.77;;;;;;;-7.23;55.73;102051.80;1670513;84;21501;-73
2022/03/12 03:38:27;;;;;;;5.12;3.67;;;;;;;-7.22;55.41;102048.05;1671486;85;21149;-73
2022/03/12 03:40:55;;;;;;;4.95;3.62;;;;;;;-7.24;55.61;102048.81;1672761;85;21012;-72
2022/03/12 03:43:23;;;;;;;7.67;3.20;;;;;;;-7.26;55.72;102047.47;1670359;84;21142;-72
2022/03/12 03:45:53;;;;;;;8.75;3.33;;;;;;;-7.26;55.91;102046.61;1671555;84;21526;-74
2022/03/12 03:48:22;;;;;;;6.30;3.87;;;;;;;-7.27;55.87;102043.17;1670832;84;21457;-72
2022/03/12 03:50:50;;;;;;;7.92;3.85;;;;;;;-7.28;55.89;102045.69;1670920;85;21626;-73
2022/03/12 03:53:20;;;;;;;5.33;3.35;;;;;;;-7.31;55.88;102042.63;1670446;84;20917;-73
2022/03/12 03:55:47;;;;;;;8.10;3.52;;;;;;;-7.34;55.93;102042.08;1669883;84;20937;-72
2022/03/12 03:58:15;;;;;;;8.58;3.70;;;;;;;-7.40;56.13;102048.25;1671621;84;21585;-72
2022/03/12 04:00:57;;;;;;;13.40;4.85;;;;;;;-7.46;56.26;102044.20;1670395;85;21007;-74
2022/03/12 04:03:34;;;;;;;6.42;4.40;;;;;;;-7.53;56.28;102047.34;1670415;85;21440;-72
2022/03/12 04:06:02;;;;;;;8.60;4.25;;;;;;;-7.67;56.58;102068.45;1668532;84;20956;-73
2022/03/12 04:08:32;;;;;;;6.20;4.47;;;;;;;-7.76;56.90;102074.09;1670301;85;21019;-73
2022/03/12 04:11:04;;;;;;;6.47;4.47;;;;;;;-7.80;56.92;102077.70;1669813;84;21481;-73
2022/03/12 04:13:29;;;;;;;10.60;3.77;;;;;;;-7.84;57.14;102082.23;1670395;84;20940;-71
2022/03/12 04:15:59;;;;;;;9.20;4.20;;;;;;;-7.87;57.29;102078.28;1671765;84;21161;-74
2022/03/12 04:18:27;;;;;;;6.08;3.50;;;;;;;-7.87;57.41;102085.53;1671405;85;20976;-74
2022/03/12 04:20:55;;;;;;;9.98;3.98;;;;;;;-7.86;57.48;102086.40;1669077;84;20932;-72
2022/03/12 04:23:25;;;;;;;6.65;4.22;;;;;;;-7.85;57.37;102086.84;1670363;85;20941;-75
2022/03/12 04:25:55;;;;;;;16.52;8.60;;;;;;;-7.85;57.35;102089.39;1671596;84;21449;-74
2022/03/12 04:28:25;;;;;;;22.10;10.20;;;;;;;-7.87;57.37;102088.47;1669622;84;21924;-73
2022/03/12 04:30:52;;;;;;;24.60;12.43;;;;;;;-7.92;57.17;102087.87;1670378;85;21063;-73
2022/03/12 04:33:21;;;;;;;26.35;12.95;;;;;;;-7.98;56.97;102089.31;1665926;84;21034;-74
2022/03/12 04:35:48;;;;;;;21.12;11.12;;;;;;;-8.01;57.07;102087.52;1671550;84;22113;-74
2022/03/12 04:38:15;;;;;;;23.77;11.85;;;;;;;-8.02;56.91;102101.06;1672556;84;21019;-72
2022/03/12 04:40:44;;;;;;;22.75;12.53;;;;;;;-8.02;57.07;102102.34;1670617;84;21541;-75
2022/03/12 04:43:12;;;;;;;27.55;13.72;;;;;;;-8.01;57.16;102112.97;1664425;84;21608;-74
2022/03/12 04:45:44;;;;;;;24.12;12.23;;;;;;;-7.97;57.14;102112.29;1670702;85;21525;-73
2022/03/12 04:48:23;;;;;;;18.62;10.13;;;;;;;-7.95;57.20;102108.13;1670422;84;20972;-73
2022/03/12 04:50:52;;;;;;;16.97;8.40;;;;;;;-7.92;57.40;102113.74;1670740;84;20976;-73
2022/03/12 04:53:21;;;;;;;17.27;7.47;;;;;;;-7.83;57.51;102116.65;1668615;84;21803;-73
2022/03/12 04:55:49;;;;;;;11.50;5.40;;;;;;;-7.67;57.50;102119.80;1670042;85;21103;-73
2022/03/12 04:58:18;;;;;;;12.37;6.65;;;;;;;-7.25;57.69;102114.17;1670222;84;21016;-73
2022/03/12 05:00:46;;;;;;;13.10;5.58;;;;;;;-6.52;57.37;102117.61;1671586;84;21032;-73
2022/03/12 05:03:19;;;;;;;13.70;7.00;;;;;;;-5.60;56.28;102114.56;1672678;84;21551;-73
2022/03/12 05:05:50;;;;;;;9.68;5.55;;;;;;;-4.66;54.29;102107.89;1671645;85;21124;-73
2022/03/12 05:08:23;;;;;;;12.18;5.97;;;;;;;-3.74;52.13;102115.27;1671414;85;20936;-73
2022/03/12 05:10:54;;;;;;;10.35;5.70;;;;;;;-2.95;50.16;102117.41;1661768;85;20985;-75
2022/03/12 05:13:24;;;;;;;8.73;4.80;;;;;;;-2.19;48.44;102120.06;1670722;84;20968;-74
2022/03/12 05:15:53;;;;;;;8.93;5.22;;;;;;;-1.66;45.76;102112.33;1672752;84;20997;-74
2022/03/12 05:18:21;;;;;;;9.90;5.90;;;;;;;-1.39;43.95;102114.84;1669245;84;21195;-73
2022/03/12 05:20:48;;;;;;;11.50;6.00;;;;;;;-1.21;43.17;102112.94;1671250;84;21056;-73
2022/03/12 05:23:16;;;;;;;6.65;4.40;;;;;;;-0.90;42.58;102107.30;1670440;85;21043;-75
2022/03/12 05:25:48;;;;;;;10.20;5.08;;;;;;;-0.51;41.44;102116.31;1668421;84;20953;-75
2022/03/12 05:28:21;;;;;;;10.63;5.50;;;;;;;-0.24;39.32;102113.55;1671516;84;20965;-74
2022/03/12 05:30:48;;;;;;;8.68;5.00;;;;;;;-0.60;38.96;102119.20;1670336;85;21990;-74
2022/03/12 05:33:17;;;;;;;12.88;5.50;;;;;;;-0.92;38.51;102110.71;1671180;85;21166;-74
2022/03/12 05:35:45;;;;;;;13.20;6.25;;;;;;;-0.86;39.24;102112.07;1671020;85;21072;-74
2022/03/12 05:38:14;;;;;;;9.13;5.08;;;;;;;-0.84;39.05;102119.39;1670461;84;21558;-74
2022/03/12 05:40:42;;;;;;;8.95;4.65;;;;;;;-0.86;39.15;102126.23;1669769;84;21009;-74
2022/03/12 05:43:15;;;;;;;7.47;4.75;;;;;;;-0.77;38.87;102128.05;1671769;84;21121;-75
2022/03/12 05:45:45;;;;;;;7.85;4.92;;;;;;;-0.53;39.18;102122.30;1671589;84;20956;-76
2022/03/12 05:48:13;;;;;;;7.45;3.37;;;;;;;-0.11;38.75;102126.99;1672594;85;21064;-75
2022/03/12 05:50:41;;;;;;;7.75;3.50;;;;;;;0.38;37.35;102131.23;1664306;85;21008;-74
2022/03/12 05:54:41;;;;;;;8.58;3.72;;;;;;;0.94;36.63;102123.78;1798718;79;23300;-74
2022/03/12 05:57:08;;;;;;;9.38;4.83;;;;;;;1.29;36.46;102126.89;1758400;81;20896;-75
2022/03/12 05:59:36;;;;;;;7.55;3.80;;;;;;;1.80;35.86;102123.55;1758377;80;21883;-74
2022/03/12 06:02:04;;;;;;;6.92;4.25;;;;;;;2.41;34.95;102122.64;1758199;81;21498;-74
2022/03/12 06:04:32;;;;;;;4.80;3.55;;;;;;;2.85;33.96;102119.06;1758231;81;20845;-74
2022/03/12 06:07:00;;;;;;;10.32;4.20;;;;;;;3.05;32.12;102122.02;1758332;81;21434;-75
2022/03/12 06:09:29;;;;;;;4.28;3.55;;;;;;;3.13;32.66;102124.12;1758343;81;21366;-74
2022/03/12 06:11:58;;;;;;;5.65;3.67;;;;;;;3.40;32.14;102123.13;1758358;80;21150;-74
2022/03/12 06:14:25;;;;;;;7.22;3.70;;;;;;;3.63;31.49;102116.94;1758165;81;20928;-74
2022/03/12 06:16:54;;;;;;;5.45;3.45;;;;;;;3.78;31.13;102111.63;1758407;80;20900;-75
2022/03/12 06:19:23;;;;;;;6.53;3.87;;;;;;;3.94;30.10;102118.41;1758220;81;21058;-74
2022/03/12 06:21:50;;;;;;;4.28;3.52;;;;;;;4.17;30.38;102113.45;1758417;81;20924;-75
2022/03/12 06:24:18;;;;;;;5.00;3.12;;;;;;;4.59;30.61;102112.59;1758151;80;21110;-74
2022/03/12 06:26:46;;;;;;;8.30;4.08;;;;;;;5.00;29.43;102120.33;1758232;81;21407;-76
2022/03/12 06:29:13;;;;;;;7.72;3.87;;;;;;;5.12;29.27;102121.48;1758297;81;20943;-74
2022/03/12 06:31:41;;;;;;;4.75;3.60;;;;;;;5.22;29.35;102115.71;1758343;81;20904;-75
2022/03/12 06:34:10;;;;;;;6.87;4.22;;;;;;;5.59;28.91;102120.41;1758471;80;20881;-74
2022/03/12 06:36:44;;;;;;;10.08;4.70;;;;;;;5.89;28.59;102112.56;1758256;81;21942;-74
2022/03/12 06:39:07;;;;;;;7.15;3.92;;;;;;;6.20;27.92;102113.35;1757800;81;21102;-74
2022/03/12 06:41:42;;;;;;;5.33;3.65;;;;;;;6.48;28.06;102114.17;1758326;81;20979;-74
2022/03/12 06:44:08;;;;;;;5.78;3.77;;;;;;;6.58;27.08;102112.67;1757873;81;20967;-73
2022/03/12 06:46:37;;;;;;;4.42;3.27;;;;;;;6.73;27.24;102110.63;1758366;81;20865;-74
2022/03/12 06:49:05;;;;;;;5.08;3.70;;;;;;;6.87;26.51;102113.84;1758476;81;21429;-73
2022/03/12 06:51:33;;;;;;;4.55;3.12;;;;;;;6.93;26.32;102108.47;1758280;81;20903;-73
2022/03/12 06:54:00;;;;;;;7.03;3.47;;;;;;;7.01;26.06;102102.66;1758262;81;20923;-74
2022/03/12 06:56:28;;;;;;;5.58;3.42;;;;;;;7.08;25.40;102095.56;1758481;81;20908;-75
2022/03/12 06:58:55;;;;;;;6.37;3.35;;;;;;;6.99;25.54;102097.06;1758599;80;20964;-75
2022/03/12 07:01:22;;;;;;;4.45;3.77;;;;;;;6.95;25.94;102095.41;1758492;81;21131;-74
2022/03/12 07:03:51;;;;;;;3.75;3.10;;;;;;;7.22;25.91;102091.34;1758343;81;20900;-74
2022/03/12 07:06:22;;;;;;;4.47;3.08;;;;;;;7.44;25.27;102092.56;1758004;80;20861;-75
2022/03/12 07:08:50;;;;;;;4.62;3.27;;;;;;;7.58;25.32;102093.57;1757996;80;21421;-75
2022/03/12 07:11:20;;;;;;;5.22;3.30;;;;;;;7.81;25.22;102091.70;1757921;81;21468;-74
2022/03/12 07:13:46;;;;;;;6.20;4.17;;;;;;;8.14;25.01;102081.30;1757831;81;21260;-74
2022/03/12 07:16:13;;;;;;;6.70;4.35;;;;;;;8.41;24.57;102085.41;1757938;80;20912;-74
2022/03/12 07:18:41;;;;;;;5.75;2.90;;;;;;;8.43;23.72;102083.61;1757969;81;21007;-75
2022/03/12 07:21:09;;;;;;;5.80;3.65;;;;;;;8.12;23.63;102077.86;1757927;81;21370;-74
2022/03/12 07:23:37;;;;;;;6.90;3.37;;;;;;;7.98;23.88;102083.45;1758012;81;20944;-75
2022/03/12 07:26:05;;;;;;;3.62;2.80;;;;;;;8.15;23.90;102081.69;1757918;81;21096;-75
2022/03/12 07:28:32;;;;;;;4.60;3.50;;;;;;;8.22;23.25;102085.84;1757838;81;20837;-74
2022/03/12 07:31:00;;;;;;;7.55;3.45;;;;;;;8.34;23.21;102084.68;1757960;81;21342;-74
2022/03/12 07:33:30;;;;;;;3.40;2.85;;;;;;;8.36;22.66;102087.23;1757970;81;21399;-75
2022/03/12 07:35:58;;;;;;;6.28;3.47;;;;;;;8.40;22.68;102079.72;1758262;80;20877;-74
2022/03/12 07:38:25;;;;;;;6.60;3.40;;;;;;;8.53;22.76;102078.97;1758345;81;21582;-74
2022/03/12 07:40:52;;;;;;;4.62;3.55;;;;;;;8.45;22.58;102072.66;1757813;80;20916;-73
2022/03/12 07:43:20;;;;;;;5.80;3.60;;;;;;;8.50;22.99;102068.16;1757817;81;20927;-74
2022/03/12 07:45:47;;;;;;;4.90;3.87;;;;;;;8.68;23.19;102069.39;1757727;81;20951;-74
2022/03/12 07:48:15;;;;;;;4.12;3.08;;;;;;;8.76;22.85;102069.15;1757946;81;21011;-76
2022/03/12 07:50:43;;;;;;;4.97;3.35;;;;;;;8.77;22.39;102068.27;1757957;81;21195;-74
2022/03/12 07:53:12;;;;;;;4.08;2.90;;;;;;;8.66;22.21;102068.57;1756263;80;20888;-73
2022/03/12 07:55:41;;;;;;;4.90;2.98;;;;;;;8.56;22.03;102062.76;1744641;80;20858;-74
2022/03/12 07:58:08;;;;;;;5.80;3.30;;;;;;;8.49;22.74;102065.11;1744573;82;20920;-74
2022/03/12 08:00:36;;;;;;;4.80;2.95;;;;;;;8.49;23.21;102057.27;1744595;82;21004;-74
2022/03/12 08:03:03;;;;;;;4.03;2.70;;;;;;;8.59;22.32;102060.05;1744767;82;21607;-74
2022/03/12 08:05:30;;;;;;;3.55;2.80;;;;;;;8.53;22.05;102058.91;1744574;80;21004;-74
2022/03/12 08:08:02;;;;;;;6.42;3.10;;;;;;;8.34;22.74;102050.70;1744547;81;20896;-74
2022/03/12 08:11:24;;;;;;;6.80;3.12;;;;;;;8.34;22.74;102050.70;1744571;82;21307;-74
2022/03/12 08:13:02;;;;;;;4.87;3.20;;;;;;;8.32;22.66;102052.50;1743775;82;20940;-75
2022/03/12 08:15:29;;;;;;;3.75;2.80;;;;;;;8.57;22.30;102050.53;1744542;81;21910;-74
2022/03/12 08:17:56;;;;;;;8.58;3.30;;;;;;;9.07;22.12;102046.85;1744414;82;21059;-74
2022/03/12 08:20:23;;;;;;;3.05;2.65;;;;;;;9.57;21.87;102057.50;1744623;82;20885;-73
2022/03/12 08:22:52;;;;;;;3.92;2.80;;;;;;;9.65;21.30;102048.06;1743808;81;21448;-73
2022/03/12 08:25:20;;;;;;;3.37;2.75;;;;;;;9.25;20.92;102041.49;1744652;82;20897;-75
2022/03/12 08:27:47;;;;;;;2.50;2.27;;;;;;;8.83;20.46;102048.48;1744829;82;22223;-75
2022/03/12 08:30:14;;;;;;;4.80;2.77;;;;;;;8.12;20.93;102045.20;1744431;81;20948;-73
2022/03/12 08:32:43;;;;;;;5.75;2.77;;;;;;;8.10;21.56;102038.70;1744553;81;21020;-73
2022/03/12 08:35:12;;;;;;;4.25;2.67;;;;;;;8.35;21.49;102039.79;1744442;82;20904;-74
2022/03/12 08:37:39;;;;;;;3.55;2.37;;;;;;;8.77;21.66;102038.19;1744640;81;20893;-74
2022/03/12 08:40:14;;;;;;;3.95;2.90;;;;;;;9.11;21.81;102028.42;1744640;81;21300;-75
2022/03/12 08:42:41;;;;;;;4.67;2.92;;;;;;;9.26;21.12;102024.44;1744454;81;21327;-74
2022/03/12 08:45:11;;;;;;;7.20;2.40;;;;;;;9.57;20.54;102033.92;1744557;82;20928;-74
2022/03/12 08:47:40;;;;;;;4.55;2.17;;;;;;;9.36;20.27;102028.06;1744471;81;20925;-74
2022/03/12 08:50:10;;;;;;;4.72;2.50;;;;;;;9.36;20.27;102028.06;1744593;82;20979;-74
2022/03/12 08:52:38;;;;;;;4.40;2.90;;;;;;;9.28;20.68;102023.95;1744600;82;21317;-73
2022/03/12 08:55:06;;;;;;;3.50;2.42;;;;;;;9.48;21.24;102027.69;1753753;81;20912;-73
2022/03/12 08:57:34;;;;;;;3.27;2.98;;;;;;;9.74;20.01;102013.73;1757785;81;20908;-73
2022/03/12 09:00:05;;;;;;;5.50;2.35;;;;;;;9.87;20.64;102007.59;1757912;81;20936;-72
2022/03/12 09:02:34;;;;;;;4.95;2.27;;;;;;;10.15;20.26;101996.99;1757987;81;20971;-74
2022/03/12 09:05:06;;;;;;;4.17;2.08;;;;;;;10.23;19.27;102000.67;1757899;81;20975;-73
2022/03/12 09:07:33;;;;;;;4.40;2.42;;;;;;;10.21;19.84;102002.48;1757631;81;21015;-72
2022/03/12 09:10:02;;;;;;;5.08;2.52;;;;;;;10.21;19.84;102002.48;1757842;80;20910;-74
2022/03/12 09:12:31;;;;;;;3.12;2.17;;;;;;;10.37;19.58;101994.48;1757831;81;20901;-73
2022/03/12 09:14:58;;;;;;;3.47;2.77;;;;;;;10.28;19.29;101994.33;1757844;81;20885;-75
2022/03/12 09:17:26;;;;;;;3.02;2.25;;;;;;;10.19;19.59;101998.60;1757812;81;21690;-74
2022/03/12 09:19:55;;;;;;;6.28;2.45;;;;;;;10.14;19.30;101993.53;1757740;81;20944;-74
2022/03/12 09:22:23;;;;;;;4.20;1.90;;;;;;;9.72;19.24;101994.12;1757813;81;20927;-73
2022/03/12 09:24:50;;;;;;;6.87;2.50;;;;;;;9.85;19.71;101989.75;1757643;81;21478;-75
2022/03/12 09:27:17;;;;;;;3.05;2.15;;;;;;;10.02;19.37;101987.86;1757888;80;21533;-75
2022/03/12 09:29:44;;;;;;;6.25;2.02;;;;;;;10.42;18.91;101982.50;1757815;80;21900;-74
2022/03/12 09:32:13;;;;;;;5.50;2.42;;;;;;;10.42;18.91;101982.50;1757818;81;20881;-74
2022/03/12 09:34:40;;;;;;;5.78;1.85;;;;;;;10.77;19.29;101985.10;1757809;81;20927;-74
2022/03/12 09:37:08;;;;;;;6.95;2.27;;;;;;;11.05;18.23;101980.94;1757850;81;20920;-74
2022/03/12 09:39:37;;;;;;;3.20;1.80;;;;;;;11.09;18.39;101981.65;1757871;81;20987;-75
2022/03/12 09:42:08;;;;;;;1.95;1.70;;;;;;;10.98;17.81;101978.14;1757723;81;20947;-75
2022/03/12 09:44:36;;;;;;;3.92;1.90;;;;;;;10.84;18.05;101973.91;1757750;81;20999;-74
2022/03/12 09:47:04;;;;;;;4.70;2.12;;;;;;;10.81;18.20;101971.41;1757721;81;20987;-75
2022/03/12 09:49:36;;;;;;;2.20;1.95;;;;;;;10.94;17.75;101960.36;1757873;81;20885;-75
2022/03/12 09:52:04;;;;;;;4.58;1.95;;;;;;;10.96;18.30;101976.03;1757800;81;21501;-74
2022/03/12 09:54:34;;;;;;;3.80;2.08;;;;;;;11.07;18.89;101967.73;1757672;80;21369;-74
2022/03/12 09:57:01;;;;;;;2.40;2.00;;;;;;;11.30;17.62;101973.38;1757825;81;20900;-75
2022/03/12 09:59:30;;;;;;;6.08;2.37;;;;;;;11.07;18.60;101967.73;1757730;81;20928;-76
2022/03/12 10:01:58;;;;;;;7.75;2.90;;;;;;;10.84;19.29;101962.09;1757952;80;20971;-76
2022/03/12 10:04:25;;;;;;;4.20;2.00;;;;;;;10.88;19.32;101954.50;1757807;81;20982;-74
2022/03/12 10:06:53;;;;;;;2.62;2.10;;;;;;;11.08;18.50;101949.77;1757843;81;21480;-75
2022/03/12 10:09:19;;;;;;;4.05;1.82;;;;;;;11.24;18.67;101953.92;1757713;81;20853;-73
2022/03/12 10:11:51;;;;;;;3.67;1.75;;;;;;;11.29;18.14;101954.58;1757857;81;21020;-74
2022/03/12 10:14:18;;;;;;;2.33;1.52;;;;;;;11.11;17.32;101942.60;1757687;81;20983;-74
2022/03/12 10:16:46;;;;;;;2.50;1.52;;;;;;;11.03;18.23;101938.14;1757942;81;20896;-75
2022/03/12 10:19:13;;;;;;;5.17;2.15;;;;;;;11.04;17.42;101938.98;1757739;81;21087;-74
2022/03/12 10:21:45;;;;;;;4.47;1.80;;;;;;;10.94;18.34;101944.62;1757783;81;20888;-75
2022/03/12 10:24:13;;;;;;;1.45;1.15;;;;;;;11.19;17.90;101944.92;1757837;81;21385;-74
2022/03/12 10:26:42;;;;;;;2.40;1.25;;;;;;;11.11;18.32;101938.66;1757804;81;20908;-75
2022/03/12 10:29:12;;;;;;;1.85;1.25;;;;;;;10.93;18.65;101938.11;1757786;81;20920;-74
2022/03/12 10:31:41;;;;;;;2.00;1.50;;;;;;;10.95;18.55;101937.12;1757919;81;20844;-75
2022/03/12 10:34:25;;;;;;;2.12;1.55;;;;;;;11.06;17.56;101931.91;1757729;81;20924;-73
2022/03/12 10:36:54;;;;;;;;;;;;;;;11.02;18.15;101925.92;1760394;81;20860;-73
2022/03/12 10:39:38;;;;;;;2.62;1.27;;;;;;;10.98;18.35;101920.39;1757927;81;20100;-74
2022/03/12 10:42:08;;;;;;;3.90;1.67;;;;;;;11.26;18.44;101929.77;1755074;81;20941;-74
2022/03/12 10:44:40;;;;;;;3.08;1.35;;;;;;;11.35;18.08;101917.56;1757908;81;21139;-74
2022/03/12 10:47:24;;;;;;;3.08;1.45;;;;;;;11.29;17.54;101911.25;1757852;81;20928;-76
2022/03/12 10:50:01;;;;;;;2.12;1.75;;;;;;;11.22;17.72;101917.22;1696794;83;20927;-73
2022/03/12 10:52:30;;;;;;;4.75;1.40;;;;;;;11.10;17.71;101914.66;1721775;83;21464;-74
2022/03/12 10:54:58;;;;;;;5.22;1.80;;;;;;;10.95;17.27;101908.72;1717024;83;20936;-73
2022/03/12 10:57:27;;;;;;;3.52;1.32;;;;;;;10.79;17.89;101907.17;1708897;82;20991;-75
2022/03/12 10:59:55;;;;;;;1.80;1.32;;;;;;;10.77;18.06;101901.98;1708424;84;21437;-74
2022/03/12 11:02:24;;;;;;;1.72;1.10;;;;;;;10.73;18.34;101898.23;1708787;84;20916;-74
2022/03/12 11:04:51;;;;;;;5.28;1.27;;;;;;;10.99;18.00;101898.03;1709481;84;20865;-73
2022/03/12 11:07:26;;;;;;;1.45;1.10;;;;;;;11.33;17.74;101890.05;1708910;84;20896;-74
2022/03/12 11:09:54;;;;;;;1.52;1.12;;;;;;;11.44;17.65;101894.84;1708920;84;21564;-77
2022/03/12 11:12:36;;;;;;;2.87;1.32;;;;;;;11.11;17.90;101891.88;1708820;84;21030;-73
2022/03/12 11:15:15;;;;;;;2.98;1.27;;;;;;;10.77;18.51;101892.80;1708557;83;20861;-73
2022/03/12 11:17:51;;;;;;;3.27;1.80;;;;;;;10.61;18.33;101885.62;1708824;84;20861;-73
2022/03/12 11:20:28;;;;;;;1.98;1.57;;;;;;;10.09;18.63;101884.07;1708659;84;21343;-73
2022/03/12 11:23:27;;;;;;;2.02;1.37;;;;;;;10.00;19.02;101885.70;1744643;80;21061;-74
2022/03/12 11:25:58;;;;;;;1.65;1.00;;;;;;;10.00;19.27;101877.84;1744221;81;21383;-74
2022/03/12 11:28:28;;;;;;;2.60;1.02;;;;;;;9.91;19.55;101875.56;1744626;81;20948;-74
2022/03/12 11:30:56;;;;;;;3.95;1.20;;;;;;;9.49;19.64;101882.31;1744825;82;21426;-74
2022/03/12 11:33:26;;;;;;;2.90;1.92;;;;;;;9.49;19.64;101882.31;1744608;82;20920;-73
2022/03/12 11:36:03;;;;;;;2.83;1.92;;;;;;;9.37;20.06;101880.11;1744665;81;21150;-73